sensor_id;sensor_type;location;lat;lon;timestamp;P1;durP1;ratioP1;P2;durP2;ratioP2
24897;SDS011;12957;49.434;8.684;2023-02-22T00:00:21;3.93;;;2.40;;
24897;SDS011;12957;49.434;8.684;2023-02-22T00:02:54;5.77;;;2.60;;
24897;SDS011;12957;49.434;8.684;2023-02-22T00:05:24;2.70;;;2.30;;
24897;SDS011;12957;49.434;8.684;2023-02-22T00:07:50;4.23;;;2.30;;
24897;SDS011;12957;49.434;8.684;2023-02-22T00:10:15;2.38;;;2.17;;
24897;SDS011;12957;49.434;8.684;2023-02-22T00:12:45;2.80;;;2.10;;
24897;SDS011;12957;49.434;8.684;2023-02-22T00:15:12;2.90;;;2.25;;
24897;SDS011;12957;49.434;8.684;2023-02-22T00:17:38;4.13;;;2.30;;
24897;SDS011;12957;49.434;8.684;2023-02-22T00:20:03;3.28;;;2.38;;
24897;SDS011;12957;49.434;8.684;2023-02-22T00:22:30;3.00;;;1.90;;
24897;SDS011;12957;49.434;8.684;2023-02-22T00:24:56;4.50;;;2.28;;
24897;SDS011;12957;49.434;8.684;2023-02-22T00:27:22;5.30;;;3.07;;
24897;SDS011;12957;49.434;8.684;2023-02-22T00:29:48;3.50;;;2.70;;
24897;SDS011;12957;49.434;8.684;2023-02-22T00:32:13;4.60;;;2.70;;
24897;SDS011;12957;49.434;8.684;2023-02-22T00:34:39;5.37;;;2.63;;
24897;SDS011;12957;49.434;8.684;2023-02-22T00:37:05;5.40;;;2.80;;
24897;SDS011;12957;49.434;8.684;2023-02-22T00:39:30;4.47;;;2.37;;
24897;SDS011;12957;49.434;8.684;2023-02-22T00:41:56;5.03;;;3.13;;
24897;SDS011;12957;49.434;8.684;2023-02-22T00:44:22;4.10;;;2.70;;
24897;SDS011;12957;49.434;8.684;2023-02-22T00:46:47;4.80;;;3.08;;
24897;SDS011;12957;49.434;8.684;2023-02-22T00:49:14;5.00;;;3.43;;
24897;SDS011;12957;49.434;8.684;2023-02-22T00:51:40;4.93;;;3.20;;
24897;SDS011;12957;49.434;8.684;2023-02-22T00:54:06;12.83;;;3.40;;
24897;SDS011;12957;49.434;8.684;2023-02-22T00:56:32;10.50;;;3.60;;
24897;SDS011;12957;49.434;8.684;2023-02-22T00:58:58;9.17;;;3.90;;
24897;SDS011;12957;49.434;8.684;2023-02-22T01:01:25;10.10;;;5.00;;
24897;SDS011;12957;49.434;8.684;2023-02-22T01:03:51;11.30;;;4.68;;
24897;SDS011;12957;49.434;8.684;2023-02-22T01:06:17;9.82;;;4.97;;
24897;SDS011;12957;49.434;8.684;2023-02-22T01:08:43;14.63;;;5.00;;
24897;SDS011;12957;49.434;8.684;2023-02-22T01:11:09;10.50;;;4.67;;
24897;SDS011;12957;49.434;8.684;2023-02-22T01:13:34;10.03;;;4.70;;
24897;SDS011;12957;49.434;8.684;2023-02-22T01:16:00;7.25;;;4.30;;
24897;SDS011;12957;49.434;8.684;2023-02-22T01:18:25;6.47;;;4.37;;
24897;SDS011;12957;49.434;8.684;2023-02-22T01:20:51;6.93;;;4.40;;
24897;SDS011;12957;49.434;8.684;2023-02-22T01:23:16;8.40;;;4.07;;
24897;SDS011;12957;49.434;8.684;2023-02-22T01:25:42;16.35;;;5.72;;
24897;SDS011;12957;49.434;8.684;2023-02-22T01:28:07;8.25;;;4.80;;
24897;SDS011;12957;49.434;8.684;2023-02-22T01:30:34;8.93;;;4.47;;
24897;SDS011;12957;49.434;8.684;2023-02-22T01:33:00;7.72;;;4.30;;
24897;SDS011;12957;49.434;8.684;2023-02-22T01:35:28;6.87;;;4.30;;
24897;SDS011;12957;49.434;8.684;2023-02-22T01:37:55;5.90;;;4.15;;
24897;SDS011;12957;49.434;8.684;2023-02-22T01:40:32;7.00;;;4.20;;
24897;SDS011;12957;49.434;8.684;2023-02-22T01:42:59;6.83;;;4.20;;
24897;SDS011;12957;49.434;8.684;2023-02-22T01:50:28;7.15;;;4.22;;
24897;SDS011;12957;49.434;8.684;2023-02-22T01:52:56;6.23;;;4.20;;
24897;SDS011;12957;49.434;8.684;2023-02-22T01:55:22;7.78;;;4.25;;
24897;SDS011;12957;49.434;8.684;2023-02-22T01:57:47;6.97;;;3.80;;
24897;SDS011;12957;49.434;8.684;2023-02-22T02:00:14;6.17;;;4.30;;
24897;SDS011;12957;49.434;8.684;2023-02-22T02:02:54;9.47;;;4.40;;
24897;SDS011;12957;49.434;8.684;2023-02-22T02:05:23;6.60;;;4.40;;
24897;SDS011;12957;49.434;8.684;2023-02-22T02:07:55;7.53;;;4.27;;
24897;SDS011;12957;49.434;8.684;2023-02-22T02:10:20;7.30;;;4.70;;
24897;SDS011;12957;49.434;8.684;2023-02-22T02:12:49;9.20;;;5.47;;
24897;SDS011;12957;49.434;8.684;2023-02-22T02:15:16;10.63;;;5.30;;
24897;SDS011;12957;49.434;8.684;2023-02-22T02:17:46;11.47;;;5.97;;
24897;SDS011;12957;49.434;8.684;2023-02-22T02:20:18;9.23;;;5.60;;
24897;SDS011;12957;49.434;8.684;2023-02-22T02:22:57;10.00;;;5.80;;
24897;SDS011;12957;49.434;8.684;2023-02-22T02:34:22;14.43;;;6.30;;
24897;SDS011;12957;49.434;8.684;2023-02-22T02:37:05;9.60;;;5.93;;
24897;SDS011;12957;49.434;8.684;2023-02-22T02:39:38;8.30;;;5.37;;
24897;SDS011;12957;49.434;8.684;2023-02-22T02:42:09;11.93;;;5.50;;
24897;SDS011;12957;49.434;8.684;2023-02-22T02:44:38;10.67;;;6.23;;
24897;SDS011;12957;49.434;8.684;2023-02-22T02:47:09;10.77;;;5.90;;
24897;SDS011;12957;49.434;8.684;2023-02-22T02:52:24;13.73;;;5.70;;
24897;SDS011;12957;49.434;8.684;2023-02-22T02:54:51;14.20;;;6.53;;
24897;SDS011;12957;49.434;8.684;2023-02-22T02:57:17;13.57;;;6.23;;
24897;SDS011;12957;49.434;8.684;2023-02-22T02:59:43;11.40;;;6.03;;
24897;SDS011;12957;49.434;8.684;2023-02-22T03:02:18;8.73;;;5.90;;
24897;SDS011;12957;49.434;8.684;2023-02-22T03:05:01;14.70;;;5.50;;
24897;SDS011;12957;49.434;8.684;2023-02-22T03:07:42;10.27;;;5.80;;
24897;SDS011;12957;49.434;8.684;2023-02-22T03:10:51;14.13;;;6.20;;
24897;SDS011;12957;49.434;8.684;2023-02-22T03:16:01;15.40;;;5.67;;
24897;SDS011;12957;49.434;8.684;2023-02-22T03:26:30;14.13;;;6.57;;
24897;SDS011;12957;49.434;8.684;2023-02-22T03:29:00;14.37;;;6.07;;
24897;SDS011;12957;49.434;8.684;2023-02-22T03:31:29;12.50;;;5.87;;
24897;SDS011;12957;49.434;8.684;2023-02-22T03:34:03;8.98;;;5.60;;
24897;SDS011;12957;49.434;8.684;2023-02-22T03:36:41;10.15;;;6.15;;
24897;SDS011;12957;49.434;8.684;2023-02-22T03:39:13;10.77;;;5.63;;
24897;SDS011;12957;49.434;8.684;2023-02-22T03:41:42;9.33;;;5.67;;
24897;SDS011;12957;49.434;8.684;2023-02-22T03:44:13;15.87;;;6.07;;
24897;SDS011;12957;49.434;8.684;2023-02-22T03:46:40;10.90;;;6.23;;
24897;SDS011;12957;49.434;8.684;2023-02-22T03:49:22;10.17;;;6.60;;
24897;SDS011;12957;49.434;8.684;2023-02-22T03:51:53;15.10;;;6.70;;
24897;SDS011;12957;49.434;8.684;2023-02-22T03:54:19;18.10;;;6.45;;
24897;SDS011;12957;49.434;8.684;2023-02-22T03:56:48;14.77;;;7.10;;
24897;SDS011;12957;49.434;8.684;2023-02-22T03:59:17;19.13;;;7.93;;
24897;SDS011;12957;49.434;8.684;2023-02-22T04:01:43;19.77;;;7.90;;
24897;SDS011;12957;49.434;8.684;2023-02-22T04:04:08;17.50;;;7.53;;
24897;SDS011;12957;49.434;8.684;2023-02-22T04:06:34;16.47;;;7.60;;
24897;SDS011;12957;49.434;8.684;2023-02-22T04:08:59;11.93;;;7.30;;
24897;SDS011;12957;49.434;8.684;2023-02-22T04:11:25;13.93;;;7.27;;
24897;SDS011;12957;49.434;8.684;2023-02-22T04:13:50;15.27;;;8.33;;
24897;SDS011;12957;49.434;8.684;2023-02-22T04:16:18;11.70;;;6.87;;
24897;SDS011;12957;49.434;8.684;2023-02-22T04:18:44;12.23;;;7.60;;
24897;SDS011;12957;49.434;8.684;2023-02-22T04:21:09;16.10;;;7.87;;
24897;SDS011;12957;49.434;8.684;2023-02-22T04:23:35;15.03;;;7.63;;
24897;SDS011;12957;49.434;8.684;2023-02-22T04:26:00;17.53;;;8.10;;
24897;SDS011;12957;49.434;8.684;2023-02-22T04:28:26;15.40;;;8.00;;
24897;SDS011;12957;49.434;8.684;2023-02-22T04:30:51;14.43;;;7.87;;
24897;SDS011;12957;49.434;8.684;2023-02-22T04:33:17;16.33;;;8.07;;
24897;SDS011;12957;49.434;8.684;2023-02-22T04:35:42;16.13;;;8.70;;
24897;SDS011;12957;49.434;8.684;2023-02-22T04:38:08;14.63;;;7.40;;
24897;SDS011;12957;49.434;8.684;2023-02-22T04:40:36;14.83;;;8.37;;
24897;SDS011;12957;49.434;8.684;2023-02-22T04:43:01;18.20;;;9.50;;
24897;SDS011;12957;49.434;8.684;2023-02-22T04:45:27;16.83;;;9.13;;
24897;SDS011;12957;49.434;8.684;2023-02-22T04:47:52;19.33;;;9.53;;
24897;SDS011;12957;49.434;8.684;2023-02-22T04:50:18;15.70;;;9.00;;
24897;SDS011;12957;49.434;8.684;2023-02-22T04:52:43;15.77;;;9.03;;
24897;SDS011;12957;49.434;8.684;2023-02-22T04:55:12;16.83;;;9.43;;
24897;SDS011;12957;49.434;8.684;2023-02-22T04:57:38;21.23;;;8.87;;
24897;SDS011;12957;49.434;8.684;2023-02-22T05:00:04;14.43;;;8.60;;
24897;SDS011;12957;49.434;8.684;2023-02-22T05:02:30;23.23;;;9.70;;
24897;SDS011;12957;49.434;8.684;2023-02-22T05:04:55;16.53;;;9.43;;
24897;SDS011;12957;49.434;8.684;2023-02-22T05:07:21;20.80;;;10.73;;
24897;SDS011;12957;49.434;8.684;2023-02-22T05:09:49;20.30;;;11.27;;
24897;SDS011;12957;49.434;8.684;2023-02-22T05:12:18;21.52;;;11.68;;
24897;SDS011;12957;49.434;8.684;2023-02-22T05:15:07;29.47;;;12.47;;
24897;SDS011;12957;49.434;8.684;2023-02-22T05:17:35;25.42;;;11.80;;
24897;SDS011;12957;49.434;8.684;2023-02-22T05:20:01;27.33;;;11.63;;
24897;SDS011;12957;49.434;8.684;2023-02-22T05:22:50;20.13;;;12.13;;
24897;SDS011;12957;49.434;8.684;2023-02-22T05:25:20;31.37;;;14.60;;
24897;SDS011;12957;49.434;8.684;2023-02-22T05:27:53;31.10;;;14.07;;
24897;SDS011;12957;49.434;8.684;2023-02-22T05:30:27;30.57;;;14.40;;
24897;SDS011;12957;49.434;8.684;2023-02-22T05:32:56;29.77;;;14.40;;
24897;SDS011;12957;49.434;8.684;2023-02-22T05:35:23;32.43;;;13.93;;
24897;SDS011;12957;49.434;8.684;2023-02-22T05:37:50;29.00;;;13.37;;
24897;SDS011;12957;49.434;8.684;2023-02-22T05:40:23;32.33;;;14.37;;
24897;SDS011;12957;49.434;8.684;2023-02-22T05:42:52;26.60;;;13.80;;
24897;SDS011;12957;49.434;8.684;2023-02-22T05:45:25;28.67;;;13.80;;
24897;SDS011;12957;49.434;8.684;2023-02-22T05:48:12;29.23;;;14.52;;
24897;SDS011;12957;49.434;8.684;2023-02-22T05:50:37;24.17;;;12.90;;
24897;SDS011;12957;49.434;8.684;2023-02-22T05:53:02;22.80;;;13.30;;
24897;SDS011;12957;49.434;8.684;2023-02-22T05:55:31;23.33;;;12.60;;
24897;SDS011;12957;49.434;8.684;2023-02-22T05:58:04;25.67;;;12.93;;
24897;SDS011;12957;49.434;8.684;2023-02-22T06:00:30;25.23;;;13.50;;
24897;SDS011;12957;49.434;8.684;2023-02-22T06:02:56;31.07;;;13.33;;
24897;SDS011;12957;49.434;8.684;2023-02-22T06:05:27;27.90;;;12.33;;
24897;SDS011;12957;49.434;8.684;2023-02-22T06:07:53;28.03;;;12.67;;
24897;SDS011;12957;49.434;8.684;2023-02-22T06:10:20;24.87;;;12.03;;
24897;SDS011;12957;49.434;8.684;2023-02-22T06:12:46;28.30;;;13.10;;
24897;SDS011;12957;49.434;8.684;2023-02-22T06:15:13;28.50;;;12.50;;
24897;SDS011;12957;49.434;8.684;2023-02-22T06:17:40;29.27;;;12.57;;
24897;SDS011;12957;49.434;8.684;2023-02-22T06:20:06;25.97;;;12.20;;
24897;SDS011;12957;49.434;8.684;2023-02-22T06:22:33;28.20;;;12.40;;
24897;SDS011;12957;49.434;8.684;2023-02-22T06:25:00;25.97;;;12.13;;
24897;SDS011;12957;49.434;8.684;2023-02-22T06:27:29;26.47;;;11.50;;
24897;SDS011;12957;49.434;8.684;2023-02-22T06:29:55;30.13;;;13.03;;
24897;SDS011;12957;49.434;8.684;2023-02-22T06:32:23;30.77;;;12.77;;
24897;SDS011;12957;49.434;8.684;2023-02-22T06:34:49;22.33;;;11.83;;
24897;SDS011;12957;49.434;8.684;2023-02-22T06:37:15;29.23;;;12.23;;
24897;SDS011;12957;49.434;8.684;2023-02-22T06:39:41;27.00;;;12.37;;
24897;SDS011;12957;49.434;8.684;2023-02-22T06:42:09;21.53;;;12.77;;
24897;SDS011;12957;49.434;8.684;2023-02-22T06:44:48;25.07;;;11.50;;
24897;SDS011;12957;49.434;8.684;2023-02-22T06:47:23;23.50;;;11.60;;
24897;SDS011;12957;49.434;8.684;2023-02-22T06:49:54;22.47;;;11.93;;
24897;SDS011;12957;49.434;8.684;2023-02-22T06:52:43;24.37;;;12.03;;
24897;SDS011;12957;49.434;8.684;2023-02-22T06:55:09;19.67;;;10.60;;
24897;SDS011;12957;49.434;8.684;2023-02-22T06:57:34;21.83;;;10.73;;
24897;SDS011;12957;49.434;8.684;2023-02-22T07:00:03;21.80;;;11.30;;
24897;SDS011;12957;49.434;8.684;2023-02-22T07:02:34;19.20;;;10.80;;
24897;SDS011;12957;49.434;8.684;2023-02-22T07:05:02;21.37;;;10.23;;
24897;SDS011;12957;49.434;8.684;2023-02-22T07:07:28;17.80;;;10.30;;
24897;SDS011;12957;49.434;8.684;2023-02-22T07:09:56;17.50;;;10.17;;
24897;SDS011;12957;49.434;8.684;2023-02-22T07:12:24;18.77;;;9.77;;
24897;SDS011;12957;49.434;8.684;2023-02-22T07:14:56;18.97;;;9.07;;
24897;SDS011;12957;49.434;8.684;2023-02-22T07:17:29;16.03;;;9.40;;
24897;SDS011;12957;49.434;8.684;2023-02-22T07:20:03;19.00;;;9.37;;
24897;SDS011;12957;49.434;8.684;2023-02-22T07:22:34;15.90;;;8.70;;
24897;SDS011;12957;49.434;8.684;2023-02-22T07:25:02;19.87;;;9.20;;
24897;SDS011;12957;49.434;8.684;2023-02-22T07:27:30;20.50;;;9.10;;
24897;SDS011;12957;49.434;8.684;2023-02-22T07:29:59;16.08;;;9.13;;
24897;SDS011;12957;49.434;8.684;2023-02-22T07:32:24;15.17;;;8.47;;
24897;SDS011;12957;49.434;8.684;2023-02-22T07:34:58;18.08;;;8.55;;
24897;SDS011;12957;49.434;8.684;2023-02-22T07:37:31;18.20;;;8.70;;
24897;SDS011;12957;49.434;8.684;2023-02-22T07:39:59;17.10;;;8.85;;
24897;SDS011;12957;49.434;8.684;2023-02-22T07:42:26;16.63;;;9.63;;
24897;SDS011;12957;49.434;8.684;2023-02-22T07:44:52;15.93;;;9.60;;
24897;SDS011;12957;49.434;8.684;2023-02-22T07:47:17;13.65;;;8.55;;
24897;SDS011;12957;49.434;8.684;2023-02-22T07:49:46;15.70;;;8.95;;
24897;SDS011;12957;49.434;8.684;2023-02-22T07:52:14;18.50;;;9.23;;
24897;SDS011;12957;49.434;8.684;2023-02-22T07:54:44;14.02;;;8.57;;
24897;SDS011;12957;49.434;8.684;2023-02-22T07:57:10;17.88;;;8.68;;
24897;SDS011;12957;49.434;8.684;2023-02-22T07:59:37;15.95;;;9.00;;
24897;SDS011;12957;49.434;8.684;2023-02-22T08:02:03;20.67;;;9.38;;
24897;SDS011;12957;49.434;8.684;2023-02-22T08:04:34;15.65;;;8.65;;
24897;SDS011;12957;49.434;8.684;2023-02-22T08:07:10;16.98;;;8.43;;
24897;SDS011;12957;49.434;8.684;2023-02-22T08:09:42;13.40;;;8.00;;
24897;SDS011;12957;49.434;8.684;2023-02-22T08:12:10;12.70;;;6.95;;
24897;SDS011;12957;49.434;8.684;2023-02-22T08:14:38;10.77;;;6.43;;
24897;SDS011;12957;49.434;8.684;2023-02-22T08:17:12;12.60;;;7.10;;
24897;SDS011;12957;49.434;8.684;2023-02-22T08:19:38;10.15;;;6.07;;
24897;SDS011;12957;49.434;8.684;2023-02-22T08:22:05;8.98;;;6.55;;
24897;SDS011;12957;49.434;8.684;2023-02-22T08:24:36;14.55;;;6.97;;
24897;SDS011;12957;49.434;8.684;2023-02-22T08:27:06;11.23;;;6.47;;
24897;SDS011;12957;49.434;8.684;2023-02-22T08:29:33;12.27;;;7.00;;
24897;SDS011;12957;49.434;8.684;2023-02-22T08:32:01;10.98;;;6.15;;
24897;SDS011;12957;49.434;8.684;2023-02-22T08:34:27;9.50;;;5.97;;
24897;SDS011;12957;49.434;8.684;2023-02-22T08:36:52;14.77;;;6.40;;
24897;SDS011;12957;49.434;8.684;2023-02-22T08:39:18;14.82;;;7.57;;
24897;SDS011;12957;49.434;8.684;2023-02-22T08:41:47;14.73;;;7.00;;
24897;SDS011;12957;49.434;8.684;2023-02-22T08:44:17;16.63;;;7.28;;
24897;SDS011;12957;49.434;8.684;2023-02-22T08:46:55;10.88;;;7.05;;
24897;SDS011;12957;49.434;8.684;2023-02-22T08:49:26;16.27;;;7.65;;
24897;SDS011;12957;49.434;8.684;2023-02-22T08:52:20;15.80;;;6.97;;
24897;SDS011;12957;49.434;8.684;2023-02-22T08:54:46;12.95;;;7.88;;
24897;SDS011;12957;49.434;8.684;2023-02-22T08:57:12;13.70;;;7.68;;
24897;SDS011;12957;49.434;8.684;2023-02-22T08:59:44;13.95;;;7.40;;
24897;SDS011;12957;49.434;8.684;2023-02-22T09:02:13;14.00;;;8.02;;
24897;SDS011;12957;49.434;8.684;2023-02-22T09:04:40;14.80;;;8.13;;
24897;SDS011;12957;49.434;8.684;2023-02-22T09:07:05;14.73;;;8.65;;
24897;SDS011;12957;49.434;8.684;2023-02-22T09:09:42;11.93;;;8.30;;
24897;SDS011;12957;49.434;8.684;2023-02-22T09:12:08;16.83;;;8.35;;
24897;SDS011;12957;49.434;8.684;2023-02-22T09:14:33;14.48;;;8.10;;
24897;SDS011;12957;49.434;8.684;2023-02-22T09:17:02;11.63;;;7.95;;
24897;SDS011;12957;49.434;8.684;2023-02-22T09:19:35;14.02;;;7.95;;
24897;SDS011;12957;49.434;8.684;2023-02-22T09:22:00;13.25;;;7.88;;
24897;SDS011;12957;49.434;8.684;2023-02-22T09:24:26;19.17;;;8.63;;
24897;SDS011;12957;49.434;8.684;2023-02-22T09:26:54;13.77;;;8.35;;
24897;SDS011;12957;49.434;8.684;2023-02-22T09:29:24;11.70;;;7.60;;
24897;SDS011;12957;49.434;8.684;2023-02-22T09:31:54;11.95;;;8.20;;
24897;SDS011;12957;49.434;8.684;2023-02-22T09:34:23;12.98;;;7.35;;
24897;SDS011;12957;49.434;8.684;2023-02-22T09:36:59;14.20;;;8.60;;
24897;SDS011;12957;49.434;8.684;2023-02-22T09:39:37;11.93;;;7.53;;
24897;SDS011;12957;49.434;8.684;2023-02-22T09:44:49;12.90;;;7.78;;
24897;SDS011;12957;49.434;8.684;2023-02-22T09:47:21;14.00;;;7.93;;
24897;SDS011;12957;49.434;8.684;2023-02-22T09:49:59;10.35;;;7.45;;
24897;SDS011;12957;49.434;8.684;2023-02-22T09:53:02;14.57;;;7.47;;
24897;SDS011;12957;49.434;8.684;2023-02-22T09:55:47;14.57;;;8.40;;
24897;SDS011;12957;49.434;8.684;2023-02-22T10:03:52;16.33;;;8.30;;
24897;SDS011;12957;49.434;8.684;2023-02-22T10:06:24;16.20;;;8.70;;
24897;SDS011;12957;49.434;8.684;2023-02-22T10:08:54;13.05;;;8.02;;
24897;SDS011;12957;49.434;8.684;2023-02-22T10:11:34;18.17;;;8.57;;
24897;SDS011;12957;49.434;8.684;2023-02-22T10:17:01;14.35;;;7.53;;
24897;SDS011;12957;49.434;8.684;2023-02-22T10:23:16;16.77;;;7.40;;
24897;SDS011;12957;49.434;8.684;2023-02-22T10:25:50;12.98;;;8.60;;
24897;SDS011;12957;49.434;8.684;2023-02-22T10:28:31;18.58;;;8.55;;
24897;SDS011;12957;49.434;8.684;2023-02-22T10:31:07;13.93;;;8.50;;
24897;SDS011;12957;49.434;8.684;2023-02-22T10:33:54;14.65;;;8.25;;
24897;SDS011;12957;49.434;8.684;2023-02-22T10:36:27;13.73;;;7.88;;
24897;SDS011;12957;49.434;8.684;2023-02-22T10:41:37;18.85;;;8.40;;
24897;SDS011;12957;49.434;8.684;2023-02-22T10:44:13;18.27;;;7.43;;
24897;SDS011;12957;49.434;8.684;2023-02-22T10:46:42;18.73;;;8.32;;
24897;SDS011;12957;49.434;8.684;2023-02-22T10:49:09;15.85;;;8.13;;
24897;SDS011;12957;49.434;8.684;2023-02-22T10:51:34;13.40;;;8.65;;
24897;SDS011;12957;49.434;8.684;2023-02-22T10:56:56;13.77;;;7.53;;
24897;SDS011;12957;49.434;8.684;2023-02-22T10:59:32;14.20;;;8.25;;
24897;SDS011;12957;49.434;8.684;2023-02-22T11:02:07;15.60;;;7.88;;
24897;SDS011;12957;49.434;8.684;2023-02-22T11:04:49;11.07;;;7.32;;
24897;SDS011;12957;49.434;8.684;2023-02-22T11:09:55;13.63;;;8.35;;
24897;SDS011;12957;49.434;8.684;2023-02-22T11:12:26;9.90;;;7.35;;
24897;SDS011;12957;49.434;8.684;2023-02-22T11:14:54;14.55;;;7.90;;
24897;SDS011;12957;49.434;8.684;2023-02-22T11:17:30;15.65;;;7.50;;
24897;SDS011;12957;49.434;8.684;2023-02-22T11:19:59;19.48;;;8.50;;
24897;SDS011;12957;49.434;8.684;2023-02-22T11:22:26;15.23;;;7.97;;
24897;SDS011;12957;49.434;8.684;2023-02-22T11:25:02;12.90;;;7.63;;
24897;SDS011;12957;49.434;8.684;2023-02-22T11:29:59;14.07;;;7.97;;
24897;SDS011;12957;49.434;8.684;2023-02-22T11:32:52;14.30;;;8.35;;
24897;SDS011;12957;49.434;8.684;2023-02-22T11:35:47;11.65;;;7.88;;
24897;SDS011;12957;49.434;8.684;2023-02-22T11:43:45;19.08;;;8.13;;
24897;SDS011;12957;49.434;8.684;2023-02-22T11:46:22;15.38;;;8.07;;
24897;SDS011;12957;49.434;8.684;2023-02-22T11:49:00;14.55;;;7.90;;
24897;SDS011;12957;49.434;8.684;2023-02-22T11:54:21;15.82;;;7.88;;
24897;SDS011;12957;49.434;8.684;2023-02-22T11:56:55;11.85;;;7.93;;
24897;SDS011;12957;49.434;8.684;2023-02-22T11:59:29;15.35;;;8.20;;
24897;SDS011;12957;49.434;8.684;2023-02-22T12:10:45;16.63;;;8.18;;
24897;SDS011;12957;49.434;8.684;2023-02-22T12:13:20;9.68;;;7.45;;
24897;SDS011;12957;49.434;8.684;2023-02-22T12:18:54;10.77;;;7.78;;
24897;SDS011;12957;49.434;8.684;2023-02-22T12:21:43;11.32;;;7.95;;
24897;SDS011;12957;49.434;8.684;2023-02-22T12:24:17;13.68;;;7.88;;
24897;SDS011;12957;49.434;8.684;2023-02-22T12:27:02;14.88;;;7.80;;
24897;SDS011;12957;49.434;8.684;2023-02-22T12:29:38;17.13;;;7.63;;
24897;SDS011;12957;49.434;8.684;2023-02-22T12:32:14;12.23;;;8.02;;
24897;SDS011;12957;49.434;8.684;2023-02-22T12:34:47;15.68;;;8.32;;
24897;SDS011;12957;49.434;8.684;2023-02-22T12:37:24;11.60;;;7.93;;
24897;SDS011;12957;49.434;8.684;2023-02-22T12:40:26;17.13;;;9.55;;
24897;SDS011;12957;49.434;8.684;2023-02-22T12:45:50;16.88;;;8.60;;
24897;SDS011;12957;49.434;8.684;2023-02-22T12:54:09;13.15;;;8.15;;
24897;SDS011;12957;49.434;8.684;2023-02-22T12:56:42;13.35;;;8.48;;
24897;SDS011;12957;49.434;8.684;2023-02-22T12:59:30;15.68;;;8.65;;
24897;SDS011;12957;49.434;8.684;2023-02-22T13:02:02;14.95;;;8.70;;
24897;SDS011;12957;49.434;8.684;2023-02-22T13:04:35;12.95;;;8.43;;
24897;SDS011;12957;49.434;8.684;2023-02-22T13:07:05;13.80;;;8.32;;
24897;SDS011;12957;49.434;8.684;2023-02-22T13:12:13;12.98;;;9.07;;
24897;SDS011;12957;49.434;8.684;2023-02-22T13:30:47;13.68;;;8.43;;
24897;SDS011;12957;49.434;8.684;2023-02-22T13:41:58;17.15;;;10.68;;
24897;SDS011;12957;49.434;8.684;2023-02-22T13:48:00;15.60;;;9.82;;
24897;SDS011;12957;49.434;8.684;2023-02-22T13:53:06;17.90;;;10.50;;
24897;SDS011;12957;49.434;8.684;2023-02-22T13:55:37;17.98;;;9.85;;
24897;SDS011;12957;49.434;8.684;2023-02-22T13:58:05;14.80;;;9.45;;
24897;SDS011;12957;49.434;8.684;2023-02-22T14:00:40;19.98;;;9.82;;
24897;SDS011;12957;49.434;8.684;2023-02-22T14:08:07;19.85;;;9.40;;
24897;SDS011;12957;49.434;8.684;2023-02-22T14:11:05;14.52;;;8.43;;
24897;SDS011;12957;49.434;8.684;2023-02-22T14:16:18;15.85;;;8.40;;
24897;SDS011;12957;49.434;8.684;2023-02-22T14:18:46;18.85;;;9.63;;
24897;SDS011;12957;49.434;8.684;2023-02-22T14:21:14;18.77;;;10.07;;
24897;SDS011;12957;49.434;8.684;2023-02-22T14:23:41;16.70;;;10.07;;
24897;SDS011;12957;49.434;8.684;2023-02-22T14:26:09;15.60;;;9.93;;
24897;SDS011;12957;49.434;8.684;2023-02-22T14:28:51;16.73;;;9.73;;
24897;SDS011;12957;49.434;8.684;2023-02-22T14:31:33;13.65;;;8.75;;
24897;SDS011;12957;49.434;8.684;2023-02-22T14:42:17;22.13;;;10.73;;
24897;SDS011;12957;49.434;8.684;2023-02-22T14:47:31;14.82;;;9.45;;
24897;SDS011;12957;49.434;8.684;2023-02-22T14:53:00;19.13;;;10.50;;
24897;SDS011;12957;49.434;8.684;2023-02-22T14:55:29;14.07;;;9.32;;
24897;SDS011;12957;49.434;8.684;2023-02-22T15:00:43;15.50;;;8.43;;
24897;SDS011;12957;49.434;8.684;2023-02-22T15:05:51;14.93;;;8.60;;
24897;SDS011;12957;49.434;8.684;2023-02-22T15:08:17;15.02;;;7.78;;
24897;SDS011;12957;49.434;8.684;2023-02-22T15:10:51;14.88;;;7.78;;
24897;SDS011;12957;49.434;8.684;2023-02-22T15:13:28;13.40;;;7.20;;
24897;SDS011;12957;49.434;8.684;2023-02-22T15:16:03;14.35;;;7.57;;
24897;SDS011;12957;49.434;8.684;2023-02-22T15:18:34;13.98;;;7.55;;
24897;SDS011;12957;49.434;8.684;2023-02-22T15:21:16;13.73;;;7.47;;
24897;SDS011;12957;49.434;8.684;2023-02-22T15:23:45;14.88;;;7.80;;
24897;SDS011;12957;49.434;8.684;2023-02-22T15:26:26;13.60;;;7.97;;
24897;SDS011;12957;49.434;8.684;2023-02-22T15:28:59;14.50;;;7.45;;
24897;SDS011;12957;49.434;8.684;2023-02-22T15:31:27;14.65;;;7.30;;
24897;SDS011;12957;49.434;8.684;2023-02-22T15:33:54;16.90;;;7.88;;
24897;SDS011;12957;49.434;8.684;2023-02-22T15:36:21;14.43;;;7.60;;
24897;SDS011;12957;49.434;8.684;2023-02-22T15:38:51;16.38;;;8.27;;
24897;SDS011;12957;49.434;8.684;2023-02-22T15:41:37;15.75;;;7.75;;
24897;SDS011;12957;49.434;8.684;2023-02-22T15:44:07;16.50;;;7.57;;
24897;SDS011;12957;49.434;8.684;2023-02-22T15:46:35;14.55;;;7.38;;
24897;SDS011;12957;49.434;8.684;2023-02-22T15:49:02;14.40;;;7.90;;
24897;SDS011;12957;49.434;8.684;2023-02-22T15:51:34;16.25;;;8.13;;
24897;SDS011;12957;49.434;8.684;2023-02-22T15:54:01;16.33;;;8.02;;
24897;SDS011;12957;49.434;8.684;2023-02-22T15:56:30;15.52;;;8.13;;
24897;SDS011;12957;49.434;8.684;2023-02-22T15:59:01;15.60;;;6.80;;
24897;SDS011;12957;49.434;8.684;2023-02-22T16:01:37;12.13;;;7.07;;
24897;SDS011;12957;49.434;8.684;2023-02-22T16:04:03;12.73;;;7.30;;
24897;SDS011;12957;49.434;8.684;2023-02-22T16:06:30;16.13;;;8.38;;
24897;SDS011;12957;49.434;8.684;2023-02-22T16:09:19;14.13;;;7.30;;
24897;SDS011;12957;49.434;8.684;2023-02-22T16:11:47;19.63;;;7.88;;
24897;SDS011;12957;49.434;8.684;2023-02-22T16:14:23;16.83;;;8.20;;
24897;SDS011;12957;49.434;8.684;2023-02-22T16:17:09;15.15;;;7.90;;
24897;SDS011;12957;49.434;8.684;2023-02-22T16:19:40;14.73;;;7.75;;
24897;SDS011;12957;49.434;8.684;2023-02-22T16:22:06;12.63;;;7.15;;
24897;SDS011;12957;49.434;8.684;2023-02-22T16:24:50;14.35;;;7.07;;
24897;SDS011;12957;49.434;8.684;2023-02-22T16:27:17;10.35;;;6.60;;
24897;SDS011;12957;49.434;8.684;2023-02-22T16:29:59;12.20;;;6.50;;
24897;SDS011;12957;49.434;8.684;2023-02-22T16:32:25;17.25;;;7.65;;
24897;SDS011;12957;49.434;8.684;2023-02-22T16:34:51;14.82;;;7.28;;
24897;SDS011;12957;49.434;8.684;2023-02-22T16:37:20;14.82;;;7.38;;
24897;SDS011;12957;49.434;8.684;2023-02-22T16:39:47;16.90;;;7.55;;
24897;SDS011;12957;49.434;8.684;2023-02-22T16:42:15;12.18;;;7.40;;
24897;SDS011;12957;49.434;8.684;2023-02-22T16:44:48;16.65;;;7.80;;
24897;SDS011;12957;49.434;8.684;2023-02-22T16:47:16;11.55;;;7.15;;
24897;SDS011;12957;49.434;8.684;2023-02-22T16:49:42;11.07;;;6.60;;
24897;SDS011;12957;49.434;8.684;2023-02-22T16:52:07;13.18;;;6.68;;
24897;SDS011;12957;49.434;8.684;2023-02-22T16:54:35;14.35;;;6.07;;
24897;SDS011;12957;49.434;8.684;2023-02-22T16:57:05;16.80;;;6.75;;
24897;SDS011;12957;49.434;8.684;2023-02-22T16:59:32;16.88;;;6.15;;
24897;SDS011;12957;49.434;8.684;2023-02-22T17:02:00;9.48;;;5.80;;
24897;SDS011;12957;49.434;8.684;2023-02-22T17:04:31;12.02;;;5.70;;
24897;SDS011;12957;49.434;8.684;2023-02-22T17:06:57;9.00;;;5.40;;
24897;SDS011;12957;49.434;8.684;2023-02-22T17:09:23;10.43;;;6.30;;
24897;SDS011;12957;49.434;8.684;2023-02-22T17:11:49;12.27;;;6.30;;
24897;SDS011;12957;49.434;8.684;2023-02-22T17:14:16;10.48;;;5.82;;